Time;durP1;ratioP1;P1;durP2;ratioP2;P2;SDS_P1;SDS_P2;PMS_P1;PMS_P2;Temp;Humidity;BMP_temperature;BMP_pressure;BME280_temperature;BME280_humidity;BME280_pressure;Samples;Min_cycle;Max_cycle;Signal;HPM_P1;HPM_P2
2022/12/22 03:26:50;;;;;;;;;3.67;2.00;;;;;-146.50;100.00;59256.41;5091357;27;45478;-75
2022/12/22 03:29:15;;;;;;;;;1.00;0.00;;;;;-146.50;100.00;59256.41;5075596;27;45463;-75
2022/12/22 03:31:41;;;;;;;;;6.00;2.00;;;;;-146.50;100.00;59256.41;5076860;27;46054;-76
2022/12/22 03:34:06;;;;;;;;;1.67;1.00;;;;;-146.50;100.00;59256.41;5076989;27;45397;-75
2022/12/22 03:36:31;;;;;;;;;0.33;0.33;;;;;-146.50;100.00;59256.41;5076923;27;45991;-75
2022/12/22 03:38:57;;;;;;;;;2.00;1.00;;;;;-146.50;100.00;59256.41;5076658;27;45366;-75
2022/12/22 03:46:50;;;;;;;;;1.00;1.00;;;;;-146.50;100.00;59256.41;5056240;28;45831;-74
2022/12/22 03:49:15;;;;;;;;;2.00;1.00;;;;;-146.50;100.00;59256.41;5063495;28;45431;-75
2022/12/22 03:51:46;;;;;;;;;1.00;0.67;;;;;-146.50;100.00;59256.41;5076368;27;45936;-74
2022/12/22 03:54:14;;;;;;;;;1.00;1.00;;;;;-146.50;100.00;59256.41;5076712;28;45493;-74
2022/12/22 03:56:40;;;;;;;;;1.00;1.00;;;;;-146.50;100.00;59256.41;5091988;27;45379;-74
2022/12/22 03:59:06;;;;;;;;;1.00;0.00;;;;;-146.50;100.00;59256.41;5076071;27;45371;-75
2022/12/22 04:01:35;;;;;;;;;2.00;1.00;;;;;-146.50;100.00;59256.41;5076226;27;45479;-75
2022/12/22 04:04:01;;;;;;;;;1.67;0.67;;;;;-146.50;100.00;59256.41;5075619;27;45355;-75
2022/12/22 04:06:26;;;;;;;;;1.67;0.00;;;;;-146.50;100.00;59256.41;5076309;28;45320;-74
2022/12/22 04:08:52;;;;;;;;;0.67;0.67;;;;;-146.50;100.00;59256.41;5075995;27;45564;-75
2022/12/22 04:14:02;;;;;;;;;3.00;1.00;;;;;-146.50;100.00;59256.41;5075676;28;45473;-75
2022/12/22 04:16:28;;;;;;;;;0.67;0.00;;;;;-146.50;100.00;59256.41;5076429;27;45306;-75
2022/12/22 04:18:53;;;;;;;;;3.33;1.00;;;;;-146.50;100.00;59256.41;5075273;28;45592;-74
2022/12/22 04:21:19;;;;;;;;;4.33;1.67;;;;;-146.50;100.00;59256.41;5075307;28;45380;-75
2022/12/22 04:23:44;;;;;;;;;1.00;0.00;;;;;-146.50;100.00;59256.41;5075673;27;45423;-75
2022/12/22 04:26:09;;;;;;;;;2.00;0.00;;;;;-146.50;100.00;59256.41;5073067;28;45914;-74
2022/12/22 04:28:35;;;;;;;;;1.00;1.00;;;;;-146.50;100.00;59256.41;5075495;27;45461;-75
2022/12/22 04:31:00;;;;;;;;;2.00;1.00;;;;;-146.50;100.00;59256.41;5074923;27;46428;-74
2022/12/22 04:33:26;;;;;;;;;0.00;0.00;;;;;-146.50;100.00;59256.41;5090840;27;45408;-75
2022/12/22 04:35:51;;;;;;;;;1.00;1.00;;;;;-146.50;100.00;59256.41;5075613;27;45493;-75
2022/12/22 04:38:16;;;;;;;;;1.00;0.00;;;;;-146.50;100.00;59256.41;5074275;28;45437;-74
2022/12/22 04:40:42;;;;;;;;;0.00;0.00;;;;;-146.50;100.00;59256.41;5074037;28;46241;-75
2022/12/22 04:43:07;;;;;;;;;1.00;1.00;;;;;-146.50;100.00;59256.41;5075241;27;45381;-75
2022/12/22 04:45:33;;;;;;;;;0.67;0.00;;;;;-146.50;100.00;59256.41;5074555;28;45696;-75
2022/12/22 04:47:58;;;;;;;;;2.00;0.33;;;;;-146.50;100.00;59256.41;5075955;28;45513;-75
2022/12/22 04:50:23;;;;;;;;;1.00;0.00;;;;;-146.50;100.00;59256.41;5075129;27;46811;-75
2022/12/22 04:52:49;;;;;;;;;0.00;0.00;;;;;-146.50;100.00;59256.41;5075629;27;45366;-75
2022/12/22 04:55:14;;;;;;;;;0.00;0.00;;;;;-146.50;100.00;59256.41;5075251;27;45795;-75
2022/12/22 04:57:39;;;;;;;;;2.00;0.00;;;;;-146.50;100.00;59256.41;5057369;28;45530;-75
2022/12/22 05:00:06;;;;;;;;;1.00;0.00;;;;;-146.50;100.00;59256.41;5071545;27;46147;-75
2022/12/22 05:02:31;;;;;;;;;0.00;0.00;;;;;-146.50;100.00;59256.41;5072837;28;45385;-75
2022/12/22 05:04:56;;;;;;;;;1.00;1.00;;;;;-146.50;100.00;59256.41;5074059;28;45346;-75
2022/12/22 05:07:22;;;;;;;;;0.00;0.00;;;;;-146.50;100.00;59256.41;5075294;28;45420;-74
2022/12/22 05:09:47;;;;;;;;;0.67;0.00;;;;;-146.50;100.00;59256.41;5075091;28;45386;-75
2022/12/22 05:14:56;;;;;;;;;0.00;0.00;;;;;-146.50;100.00;59256.41;5068660;28;45373;-75
2022/12/22 05:17:22;;;;;;;;;0.00;0.00;;;;;-146.50;100.00;59256.41;5059975;28;45472;-75
2022/12/22 05:19:47;;;;;;;;;1.00;1.00;;;;;-146.50;100.00;59256.41;5054605;28;46108;-74
2022/12/22 05:22:12;;;;;;;;;0.00;0.00;;;;;-146.50;100.00;59256.41;5053654;28;45338;-75
2022/12/22 05:24:38;;;;;;;;;0.00;0.00;;;;;-146.50;100.00;59256.41;5054507;28;45897;-75
2022/12/22 05:27:03;;;;;;;;;0.00;0.00;;;;;-146.50;100.00;59256.41;5054627;28;45290;-74
2022/12/22 05:29:29;;;;;;;;;1.00;0.00;;;;;-146.50;100.00;59256.41;5067275;28;45472;-75
2022/12/22 05:31:54;;;;;;;;;0.00;0.00;;;;;-146.50;100.00;59256.41;5061161;28;45397;-74
2022/12/22 05:34:19;;;;;;;;;0.00;0.00;;;;;-146.50;100.00;59256.41;5054325;28;45433;-74
2022/12/22 05:36:45;;;;;;;;;1.00;0.00;;;;;-146.50;100.00;59256.41;5055031;28;45313;-74
2022/12/22 05:39:10;;;;;;;;;0.00;0.00;;;;;-146.50;100.00;59256.41;5064981;28;45507;-74
2022/12/22 05:41:35;;;;;;;;;0.33;0.00;;;;;-146.50;100.00;59256.41;5068000;27;45337;-73
2022/12/22 05:44:01;;;;;;;;;0.00;0.00;;;;;-146.50;100.00;59256.41;5074880;27;45379;-74
2022/12/22 05:46:26;;;;;;;;;0.00;0.00;;;;;-146.50;100.00;59256.41;5074497;27;45439;-73
2022/12/22 05:48:51;;;;;;;;;0.00;0.00;;;;;-146.50;100.00;59256.41;5074971;27;45447;-74
2022/12/22 05:51:17;;;;;;;;;0.00;0.00;;;;;-146.50;100.00;59256.41;5070083;28;45337;-73
2022/12/22 05:53:42;;;;;;;;;0.00;0.00;;;;;-146.50;100.00;59256.41;5070851;28;45386;-73
2022/12/22 05:56:08;;;;;;;;;0.00;0.00;;;;;-146.50;100.00;59256.41;5074107;28;45709;-73
2022/12/22 05:58:35;;;;;;;;;0.00;0.00;;;;;-146.50;100.00;59256.41;5073885;28;46073;-74
2022/12/22 06:01:01;;;;;;;;;0.00;0.00;;;;;-146.50;100.00;59256.41;5072436;27;45361;-73
2022/12/22 06:03:28;;;;;;;;;0.00;0.00;;;;;-146.50;100.00;59256.41;5057531;27;45439;-73
2022/12/22 06:05:54;;;;;;;;;0.00;0.00;;;;;-146.50;100.00;59256.41;5053995;28;45616;-73
2022/12/22 06:08:20;;;;;;;;;0.00;0.00;;;;;-146.50;100.00;59256.41;5053661;28;47429;-74
2022/12/22 06:10:46;;;;;;;;;0.00;0.00;;;;;-146.50;100.00;59256.41;5054062;28;45422;-73
2022/12/22 06:13:11;;;;;;;;;0.00;0.00;;;;;-146.50;100.00;59256.41;5057307;28;45391;-73
2022/12/22 06:15:37;;;;;;;;;0.00;0.00;;;;;-146.50;100.00;59256.41;5056517;28;45375;-73
2022/12/22 06:18:02;;;;;;;;;0.00;0.00;;;;;-146.50;100.00;59256.41;5071163;28;45840;-73
2022/12/22 06:20:27;;;;;;;;;0.00;0.00;;;;;-146.50;100.00;59256.41;5077704;28;45394;-74
2022/12/22 06:22:53;;;;;;;;;0.00;0.00;;;;;-146.50;100.00;59256.41;5077842;27;45392;-73
2022/12/22 06:25:18;;;;;;;;;0.00;0.00;;;;;-146.50;100.00;59256.41;5076398;28;45415;-73
2022/12/22 06:27:44;;;;;;;;;0.00;0.00;;;;;-146.50;100.00;59256.41;5077710;27;45401;-74
2022/12/22 06:30:09;;;;;;;;;0.00;0.00;;;;;-146.50;100.00;59256.41;5076231;28;45479;-75
2022/12/22 06:32:36;;;;;;;;;2.33;0.00;;;;;-146.50;100.00;59256.41;5071447;27;45319;-74
2022/12/22 06:35:02;;;;;;;;;0.00;0.00;;;;;-146.50;100.00;59256.41;5064396;28;45500;-74
2022/12/22 06:37:27;;;;;;;;;0.00;0.00;;;;;-146.50;100.00;59256.41;5057348;28;46251;-75
2022/12/22 06:39:52;;;;;;;;;0.33;0.00;;;;;-146.50;100.00;59256.41;5057797;28;45364;-74
2022/12/22 06:45:02;;;;;;;;;0.00;0.00;;;;;-146.50;100.00;59256.41;5075655;28;45382;-74
2022/12/22 06:47:27;;;;;;;;;1.00;0.00;;;;;-146.50;100.00;59256.41;5076012;28;45568;-73
2022/12/22 06:49:53;;;;;;;;;0.00;0.00;;;;;-146.50;100.00;59256.41;5076338;28;45366;-74
2022/12/22 06:52:18;;;;;;;;;0.00;0.00;;;;;-146.50;100.00;59256.41;5077103;27;45698;-73
2022/12/22 06:54:43;;;;;;;;;0.00;0.00;;;;;-146.50;100.00;59256.41;5076809;28;45344;-74
2022/12/22 06:57:09;;;;;;;;;0.00;0.00;;;;;-146.50;100.00;59256.41;5073900;28;47165;-74
2022/12/22 06:59:34;;;;;;;;;3.00;0.00;;;;;-146.50;100.00;59256.41;5062466;28;45407;-73
2022/12/22 07:01:59;;;;;;;;;2.00;1.00;;;;;-146.50;100.00;59256.41;5076484;27;45341;-74
2022/12/22 07:04:25;;;;;;;;;0.00;0.00;;;;;-146.50;100.00;59256.41;5075911;28;45482;-73
2022/12/22 07:06:50;;;;;;;;;4.00;1.33;;;;;-146.50;100.00;59256.41;5076566;27;45518;-73
2022/12/22 07:09:15;;;;;;;;;3.33;0.00;;;;;-146.50;100.00;59256.41;5077166;27;45401;-73
2022/12/22 07:11:41;;;;;;;;;1.33;1.33;;;;;-146.50;100.00;59256.41;5076017;28;45474;-74
2022/12/22 07:14:06;;;;;;;;;1.67;1.67;;;;;-146.50;100.00;59256.41;5077138;27;45410;-73
2022/12/22 07:16:33;;;;;;;;;2.00;2.00;;;;;-146.50;100.00;59256.41;5076748;27;46503;-73
2022/12/22 07:18:58;;;;;;;;;4.00;1.00;;;;;-146.50;100.00;59256.41;5076817;28;45406;-73
2022/12/22 07:21:23;;;;;;;;;1.75;1.75;;;;;-146.50;100.00;59256.41;5076656;27;45685;-73
2022/12/22 07:23:49;;;;;;;;;4.00;2.25;;;;;-146.50;100.00;59256.41;5075636;28;45342;-73
2022/12/22 07:26:14;;;;;;;;;3.25;1.25;;;;;-146.50;100.00;59256.41;5076887;27;45335;-73
2022/12/22 07:28:40;;;;;;;;;5.00;3.25;;;;;-146.50;100.00;59256.41;5076693;27;45327;-73
2022/12/22 07:31:07;;;;;;;;;4.25;1.75;;;;;-146.50;100.00;59256.41;5092689;27;45374;-73
2022/12/22 07:33:32;;;;;;;;;3.25;2.50;;;;;-146.50;100.00;59256.41;5073633;27;45540;-74
2022/12/22 07:36:02;;;;;;;;;3.50;2.75;;;;;-146.50;100.00;59256.41;5076428;27;45361;-74
2022/12/22 07:38:27;;;;;;;;;4.00;2.25;;;;;-146.50;100.00;59256.41;5076590;28;45448;-74
2022/12/22 07:40:59;;;;;;;;;3.50;3.50;;;;;-146.50;100.00;59256.41;5076438;28;45513;-74
2022/12/22 07:43:24;;;;;;;;;10.00;3.00;;;;;-146.50;100.00;59256.41;5076873;27;45552;-74
2022/12/22 07:45:50;;;;;;;;;4.25;3.75;;;;;-146.50;100.00;59256.41;5076421;27;45408;-73
2022/12/22 07:51:03;;;;;;;;;5.25;3.75;;;;;-146.50;100.00;59256.41;5071438;28;45566;-74
2022/12/22 07:53:28;;;;;;;;;4.00;3.67;;;;;-146.50;100.00;59256.41;5075146;28;45354;-73
2022/12/22 07:55:54;;;;;;;;;7.25;4.75;;;;;-146.50;100.00;59256.41;5076635;27;45380;-73
2022/12/22 07:58:19;;;;;;;;;6.00;4.75;;;;;-146.50;100.00;59256.41;5076411;27;45306;-74
2022/12/22 08:00:44;;;;;;;;;3.75;3.25;;;;;-146.50;100.00;59256.41;5075093;27;45537;-73
2022/12/22 08:03:10;;;;;;;;;3.50;3.50;;;;;-146.50;100.00;59256.41;5074581;27;45338;-74
2022/12/22 08:05:36;;;;;;;;;3.00;2.50;;;;;-146.50;100.00;59256.41;5074422;28;45309;-74
2022/12/22 08:08:02;;;;;;;;;3.25;3.25;;;;;-146.50;100.00;59256.41;5074637;28;45354;-74
2022/12/22 08:10:27;;;;;;;;;7.00;4.75;;;;;-146.50;100.00;59256.41;5070319;28;45407;-74
2022/12/22 08:12:52;;;;;;;;;7.50;6.75;;;;;-146.50;100.00;59256.41;5073186;28;45522;-73
2022/12/22 08:15:18;;;;;;;;;8.50;5.25;;;;;-146.50;100.00;59256.41;5074233;27;47218;-74
2022/12/22 08:17:43;;;;;;;;;7.75;6.00;;;;;-146.50;100.00;59256.41;5073825;27;45349;-74
2022/12/22 08:20:09;;;;;;;;;12.50;5.00;;;;;-146.50;100.00;59256.41;5074527;27;45306;-73
2022/12/22 08:22:34;;;;;;;;;8.25;6.25;;;;;-146.50;100.00;59256.41;5074327;28;45514;-74
2022/12/22 08:24:59;;;;;;;;;7.00;5.75;;;;;-146.50;100.00;59256.41;5071359;27;45570;-73
2022/12/22 08:27:28;;;;;;;;;9.00;6.00;;;;;-146.50;100.00;59256.41;5073921;28;45658;-73
2022/12/22 08:29:57;;;;;;;;;8.25;7.00;;;;;-146.50;100.00;59256.41;5073608;28;45488;-73
2022/12/22 08:32:22;;;;;;;;;10.75;8.25;;;;;-146.50;100.00;59256.41;5074356;27;45404;-72
2022/12/22 08:34:50;;;;;;;;;8.00;5.00;;;;;-146.50;100.00;59256.41;5072949;28;46635;-75
2022/12/22 08:37:18;;;;;;;;;9.25;5.25;;;;;-146.50;100.00;59256.41;5075309;27;45553;-73
2022/12/22 08:39:47;;;;;;;;;11.25;7.00;;;;;-146.50;100.00;59256.41;5075710;27;45405;-73
2022/12/22 08:42:16;;;;;;;;;8.75;5.75;;;;;-146.50;100.00;59256.41;5075426;28;45378;-73
2022/12/22 08:44:43;;;;;;;;;8.00;4.00;;;;;-146.50;100.00;59256.41;5075312;28;45399;-73
2022/12/22 08:47:08;;;;;;;;;13.50;9.25;;;;;-146.50;100.00;59256.41;5075460;28;45515;-73
2022/12/22 08:49:34;;;;;;;;;14.50;7.25;;;;;-146.50;100.00;59256.41;5074033;28;45491;-73
2022/12/22 08:51:59;;;;;;;;;9.75;8.25;;;;;-146.50;100.00;59256.41;5075622;28;45421;-73
2022/12/22 08:54:24;;;;;;;;;13.25;9.75;;;;;-146.50;100.00;59256.41;5074371;28;45594;-73
2022/12/22 08:56:50;;;;;;;;;8.50;7.00;;;;;-146.50;100.00;59256.41;5073789;28;45341;-73
2022/12/22 08:59:16;;;;;;;;;13.00;7.25;;;;;-146.50;100.00;59256.41;5075631;27;45382;-73
2022/12/22 09:01:43;;;;;;;;;10.00;8.00;;;;;-146.50;100.00;59256.41;5075236;27;45350;-72
2022/12/22 09:04:11;;;;;;;;;12.25;8.00;;;;;-146.50;100.00;59256.41;5075183;27;46338;-73
2022/12/22 09:06:37;;;;;;;;;8.25;5.25;;;;;-146.50;100.00;59256.41;5073441;28;45530;-73
2022/12/22 09:09:08;;;;;;;;;8.25;7.25;;;;;-146.50;100.00;59256.41;5075024;27;45339;-72
2022/12/22 09:11:33;;;;;;;;;10.75;6.00;;;;;-146.50;100.00;59256.41;5075083;27;45496;-73
2022/12/22 09:14:01;;;;;;;;;16.00;9.00;;;;;-146.50;100.00;59256.41;5074638;27;46112;-73
2022/12/22 09:16:28;;;;;;;;;10.50;6.00;;;;;-146.50;100.00;59256.41;5074515;28;45521;-73
2022/12/22 09:18:55;;;;;;;;;6.75;5.00;;;;;-146.50;100.00;59256.41;5074069;28;45513;-73
2022/12/22 09:21:22;;;;;;;;;11.75;8.75;;;;;-146.50;100.00;59256.41;5074785;27;45396;-73
2022/12/22 09:23:47;;;;;;;;;6.00;3.00;;;;;-146.50;100.00;59256.41;5074855;28;46218;-73
2022/12/22 09:26:16;;;;;;;;;13.50;6.50;;;;;-146.50;100.00;59256.41;5075124;27;45373;-72
2022/12/22 09:28:42;;;;;;;;;9.25;8.00;;;;;-146.50;100.00;59256.41;5075085;27;45678;-73
2022/12/22 09:31:08;;;;;;;;;11.25;6.75;;;;;-146.50;100.00;59256.41;5074341;27;45393;-73
2022/12/22 09:33:37;;;;;;;;;9.25;6.00;;;;;-146.50;100.00;59256.41;5074871;27;45386;-74
2022/12/22 09:36:06;;;;;;;;;7.00;4.50;;;;;-146.50;100.00;59256.41;5074883;27;45373;-73
2022/12/22 09:38:32;;;;;;;;;4.50;4.50;;;;;-146.50;100.00;59256.41;5075016;27;45349;-74
2022/12/22 09:40:57;;;;;;;;;12.00;7.00;;;;;-146.50;100.00;59256.41;5075313;27;45408;-73
2022/12/22 09:43:29;;;;;;;;;13.75;5.75;;;;;-146.50;100.00;59256.41;5074541;27;45923;-74
2022/12/22 09:45:57;;;;;;;;;10.00;7.25;;;;;-146.50;100.00;59256.41;5077321;28;45482;-75
2022/12/22 09:48:27;;;;;;;;;5.50;5.00;;;;;-146.50;100.00;59256.41;5095526;27;45427;-74
2022/12/22 09:50:53;;;;;;;;;8.75;5.00;;;;;-146.50;100.00;59256.41;5078622;28;45343;-72
2022/12/22 09:53:21;;;;;;;;;9.25;8.75;;;;;-146.50;100.00;59256.41;5079372;28;45329;-73
2022/12/22 09:55:49;;;;;;;;;6.50;5.00;;;;;-146.50;100.00;59256.41;5078043;28;45407;-72
2022/12/22 09:58:31;;;;;;;;;12.50;9.75;;;;;-146.50;100.00;59256.41;5078200;28;45310;-73
2022/12/22 10:01:29;;;;;;;;;10.50;6.50;;;;;-146.50;100.00;59256.41;5077876;27;45445;-73
2022/12/22 10:04:03;;;;;;;;;15.00;8.75;;;;;-146.50;100.00;59256.41;5077675;27;45387;-73
2022/12/22 10:06:57;;;;;;;;;11.50;8.25;;;;;-146.50;100.00;59256.41;5077657;28;45520;-73
2022/12/22 10:09:27;;;;;;;;;14.00;10.00;;;;;-146.50;100.00;59256.41;5077536;27;45391;-73
2022/12/22 10:11:58;;;;;;;;;7.00;6.00;;;;;-146.50;100.00;59256.41;5077581;27;45302;-73
2022/12/22 10:14:30;;;;;;;;;14.25;7.25;;;;;-146.50;100.00;59256.41;5077115;27;46105;-73
2022/12/22 10:17:14;;;;;;;;;7.00;4.00;;;;;-146.50;100.00;59256.41;5077799;27;45372;-73
2022/12/22 10:19:40;;;;;;;;;1.25;1.25;;;;;-146.50;100.00;59256.41;5078023;28;45415;-73
2022/12/22 10:22:23;;;;;;;;;8.25;7.50;;;;;-146.50;100.00;59256.41;5077790;27;45425;-73
2022/12/22 10:24:49;;;;;;;;;7.00;6.25;;;;;-146.50;100.00;59256.41;5077047;27;46404;-73
2022/12/22 10:27:14;;;;;;;;;10.25;4.00;;;;;-146.50;100.00;59256.41;5077131;27;45432;-73
2022/12/22 10:29:40;;;;;;;;;15.50;9.00;;;;;-146.50;100.00;59256.41;5077177;27;45425;-72
2022/12/22 10:32:17;;;;;;;;;9.50;8.00;;;;;-146.50;100.00;59256.41;5077911;27;45361;-72
2022/12/22 10:35:04;;;;;;;;;8.00;6.00;;;;;-146.50;100.00;59256.41;5077400;27;46003;-72
2022/12/22 10:37:34;;;;;;;;;12.75;8.00;;;;;-146.50;100.00;59256.41;5077318;27;45385;-72
2022/12/22 10:40:14;;;;;;;;;12.50;6.25;;;;;-146.50;100.00;59256.41;5077629;27;45413;-72
2022/12/22 10:42:44;;;;;;;;;7.50;4.25;;;;;-146.50;100.00;59256.41;5075746;28;45546;-72
2022/12/22 10:45:17;;;;;;;;;12.00;6.25;;;;;-146.50;100.00;59256.41;5077103;28;45453;-72
2022/12/22 10:47:48;;;;;;;;;9.75;7.50;;;;;-146.50;100.00;59256.41;5076110;28;45427;-72
2022/12/22 10:50:13;;;;;;;;;17.00;7.50;;;;;-146.50;100.00;59256.41;5077447;28;45442;-73
2022/12/22 10:52:39;;;;;;;;;13.00;10.50;;;;;-146.50;100.00;59256.41;5076837;28;45493;-72
2022/12/22 10:55:27;;;;;;;;;9.75;7.25;;;;;-146.50;100.00;59256.41;5077408;27;45850;-72
2022/12/22 10:58:13;;;;;;;;;10.75;5.25;;;;;-146.50;100.00;59256.41;5076250;27;45262;-73
2022/12/22 11:00:40;;;;;;;;;12.25;7.00;;;;;-146.50;100.00;59256.41;5077150;27;45412;-72
2022/12/22 11:03:10;;;;;;;;;6.50;5.25;;;;;-146.50;100.00;59256.41;5076994;27;45401;-72
2022/12/22 11:05:36;;;;;;;;;4.00;2.00;;;;;-146.50;100.00;59256.41;5077026;27;45919;-72
2022/12/22 11:08:19;;;;;;;;;11.25;7.50;;;;;-146.50;100.00;59256.41;5093219;27;45429;-73
2022/12/22 11:10:56;;;;;;;;;9.50;8.00;;;;;-146.50;100.00;59256.41;5077262;27;45360;-73
2022/12/22 11:13:48;;;;;;;;;8.25;6.50;;;;;-146.50;100.00;59256.41;5075657;28;45322;-72
2022/12/22 11:16:23;;;;;;;;;12.25;7.25;;;;;-146.50;100.00;59256.41;5075820;28;47443;-72
2022/12/22 11:19:04;;;;;;;;;11.00;10.00;;;;;-146.50;100.00;59256.41;5076782;27;45472;-72
2022/12/22 11:21:46;;;;;;;;;10.50;7.00;;;;;-146.50;100.00;59256.41;5077037;27;45346;-72
2022/12/22 11:24:12;;;;;;;;;13.50;6.75;;;;;-146.50;100.00;59256.41;5075587;28;45429;-72
2022/12/22 11:26:51;;;;;;;;;13.50;5.75;;;;;-146.50;100.00;59256.41;5076407;28;46535;-72
2022/12/22 11:29:44;;;;;;;;;19.50;5.75;;;;;-146.50;100.00;59256.41;5076742;28;45375;-72
2022/12/22 11:32:24;;;;;;;;;7.25;6.00;;;;;-146.50;100.00;59256.41;5076847;27;45467;-72
2022/12/22 11:35:14;;;;;;;;;7.25;6.25;;;;;-146.50;100.00;59256.41;5075456;28;45484;-72
2022/12/22 11:37:53;;;;;;;;;12.00;9.75;;;;;-146.50;100.00;59256.41;5076718;27;46197;-72
2022/12/22 11:40:38;;;;;;;;;12.25;7.75;;;;;-146.50;100.00;59256.41;5076168;28;45337;-72
2022/12/22 11:43:22;;;;;;;;;8.50;4.75;;;;;-146.50;100.00;59256.41;5076561;28;45418;-73
2022/12/22 11:46:13;;;;;;;;;8.25;5.75;;;;;-146.50;100.00;59256.41;5076003;27;45301;-72
2022/12/22 11:48:48;;;;;;;;;12.25;5.50;;;;;-146.50;100.00;59256.41;5076226;28;46668;-71
2022/12/22 11:51:36;;;;;;;;;5.75;4.50;;;;;-146.50;100.00;59256.41;5076480;27;45323;-72
2022/12/22 11:54:29;;;;;;;;;9.00;7.75;;;;;-146.50;100.00;59256.41;5091589;27;45436;-72
2022/12/22 11:57:32;;;;;;;;;6.67;5.67;;;;;-146.50;100.00;59256.41;5076333;28;45369;-72
2022/12/22 12:00:13;;;;;;;;;13.50;9.50;;;;;-146.50;100.00;59256.41;5075993;28;46028;-72
2022/12/22 12:03:09;;;;;;;;;9.25;6.50;;;;;-146.50;100.00;59256.41;5074705;28;45470;-72
2022/12/22 12:06:07;;;;;;;;;8.00;6.00;;;;;-146.50;100.00;59256.41;5076153;28;45393;-72
2022/12/22 12:09:04;;;;;;;;;7.25;5.75;;;;;-146.50;100.00;59256.41;5075907;27;45259;-72
2022/12/22 12:11:49;;;;;;;;;11.00;7.25;;;;;-146.50;100.00;59256.41;5075309;28;45705;-72
2022/12/22 12:14:58;;;;;;;;;12.75;9.00;;;;;-146.50;100.00;59256.41;5074919;28;45475;-72
2022/12/22 12:17:35;;;;;;;;;7.75;7.25;;;;;-146.50;100.00;59256.41;5012864;28;45461;-72
2022/12/22 12:20:25;;;;;;;;;10.50;7.50;;;;;-146.50;100.00;59256.41;5013257;28;45563;-71
2022/12/22 12:23:18;;;;;;;;;6.75;4.50;;;;;-146.50;100.00;59256.41;5013244;28;45450;-74
2022/12/22 12:25:58;;;;;;;;;7.50;6.50;;;;;-146.50;100.00;59256.41;5012981;28;45410;-74
2022/12/22 12:28:30;;;;;;;;;7.50;4.75;;;;;-146.50;100.00;59256.41;5012866;28;45428;-73
2022/12/22 12:30:58;;;;;;;;;7.00;6.00;;;;;-146.50;100.00;59256.41;5013259;28;45475;-73
2022/12/22 12:33:50;;;;;;;;;9.75;7.50;;;;;-146.50;100.00;59256.41;5013059;28;46154;-73
2022/12/22 12:36:43;;;;;;;;;11.50;7.00;;;;;-146.50;100.00;59256.41;5013154;28;45905;-73
2022/12/22 12:39:15;;;;;;;;;8.00;4.25;;;;;-146.50;100.00;59256.41;5012560;28;45297;-74
2022/12/22 12:42:25;;;;;;;;;6.00;5.50;;;;;-146.50;100.00;59256.41;5012955;28;45462;-73
2022/12/22 12:44:52;;;;;;;;;13.50;5.25;;;;;-146.50;100.00;59256.41;4941667;28;46541;-73
2022/12/22 12:47:21;;;;;;;;;10.75;7.00;;;;;-146.50;100.00;59256.41;4973531;28;45438;-73
2022/12/22 12:49:50;;;;;;;;;9.50;7.75;;;;;-146.50;100.00;59256.41;4964374;28;45417;-74
2022/12/22 12:52:15;;;;;;;;;7.00;6.75;;;;;-146.50;100.00;59256.41;4938373;28;45450;-73
2022/12/22 12:54:48;;;;;;;;;8.67;6.33;;;;;-146.50;100.00;59256.41;4975552;28;45468;-73
2022/12/22 12:57:45;;;;;;;;;8.50;7.25;;;;;-146.50;100.00;59256.41;4993298;28;45400;-73
2022/12/22 13:00:32;;;;;;;;;9.25;7.25;;;;;-146.50;100.00;59256.41;4993950;28;45492;-73
2022/12/22 13:03:21;;;;;;;;;11.50;9.75;;;;;-146.50;100.00;59256.41;4994336;28;45416;-73
2022/12/22 13:05:52;;;;;;;;;9.50;7.25;;;;;-146.50;100.00;59256.41;5003735;28;45663;-73
2022/12/22 13:08:23;;;;;;;;;9.75;7.50;;;;;-146.50;100.00;59256.41;5014042;28;45426;-73
2022/12/22 13:11:14;;;;;;;;;8.25;5.50;;;;;-146.50;100.00;59256.41;5014302;28;45478;-73
2022/12/22 13:13:39;;;;;;;;;4.25;4.00;;;;;-146.50;100.00;59256.41;5013980;28;45431;-73
2022/12/22 13:16:05;;;;;;;;;5.25;3.00;;;;;-146.50;100.00;59256.41;4997084;28;45897;-74
2022/12/22 13:18:33;;;;;;;;;9.67;4.00;;;;;-146.50;100.00;59256.41;5012865;28;45727;-74
2022/12/22 13:21:05;;;;;;;;;11.50;8.75;;;;;-146.50;100.00;59256.41;5032852;28;45579;-74
2022/12/22 13:23:44;;;;;;;;;8.50;7.75;;;;;-146.50;100.00;59256.41;5074985;27;45379;-74
2022/12/22 13:26:36;;;;;;;;;8.50;6.50;;;;;-146.50;100.00;59256.41;5075032;27;45342;-75
2022/12/22 13:29:13;;;;;;;;;9.75;8.25;;;;;-146.50;100.00;59256.41;5074555;27;45494;-75
2022/12/22 13:31:45;;;;;;;;;9.50;7.50;;;;;-146.50;100.00;59256.41;5075349;27;45409;-75
2022/12/22 13:34:32;;;;;;;;;8.25;8.25;;;;;-146.50;100.00;59256.41;5074521;27;45650;-75
2022/12/22 13:37:01;;;;;;;;;10.50;7.00;;;;;-146.50;100.00;59256.41;5074411;27;46730;-75
2022/12/22 13:39:26;;;;;;;;;10.75;8.25;;;;;-146.50;100.00;59256.41;5074775;27;45456;-75
2022/12/22 13:41:54;;;;;;;;;13.25;10.25;;;;;-146.50;100.00;59256.41;5074185;27;45626;-75
2022/12/22 13:44:29;;;;;;;;;13.75;9.00;;;;;-146.50;100.00;59256.41;5075954;27;45391;-76
2022/12/22 13:47:04;;;;;;;;;8.00;6.75;;;;;-146.50;100.00;59256.41;5074611;27;46251;-76
2022/12/22 13:49:31;;;;;;;;;6.00;6.00;;;;;-146.50;100.00;59256.41;5075332;28;45391;-76
2022/12/22 13:51:58;;;;;;;;;12.75;8.75;;;;;-146.50;100.00;59256.41;5074064;27;45382;-76
2022/12/22 13:54:31;;;;;;;;;6.25;5.00;;;;;-146.50;100.00;59256.41;5074132;28;45377;-75
2022/12/22 13:56:59;;;;;;;;;8.75;7.00;;;;;-146.50;100.00;59256.41;5074478;27;46395;-76
2022/12/22 13:59:42;;;;;;;;;8.50;6.75;;;;;-146.50;100.00;59256.41;5074713;27;45298;-77
2022/12/22 14:02:07;;;;;;;;;8.50;6.00;;;;;-146.50;100.00;59256.41;5074057;27;45313;-76
2022/12/22 14:04:35;;;;;;;;;10.50;5.75;;;;;-146.50;100.00;59256.41;5073649;28;45504;-77
2022/12/22 14:07:15;;;;;;;;;11.00;6.25;;;;;-146.50;100.00;59256.41;5074575;27;45480;-75
2022/12/22 14:09:58;;;;;;;;;7.75;4.50;;;;;-146.50;100.00;59256.41;5071262;28;45428;-75
2022/12/22 14:12:30;;;;;;;;;10.50;6.75;;;;;-146.50;100.00;59256.41;5072117;27;45319;-77
2022/12/22 14:14:58;;;;;;;;;4.00;3.00;;;;;-146.50;100.00;59256.41;5083131;27;45600;-76
2022/12/22 14:17:33;;;;;;;;;7.50;2.75;;;;;-146.50;100.00;59256.41;5078413;27;46145;-77
2022/12/22 14:20:01;;;;;;;;;6.00;6.00;;;;;-146.50;100.00;59256.41;5072389;28;45369;-75
2022/12/22 14:22:35;;;;;;;;;7.25;7.25;;;;;-146.50;100.00;59256.41;5072146;28;45477;-75
2022/12/22 14:25:10;;;;;;;;;9.25;5.00;;;;;-146.50;100.00;59256.41;5074002;27;45384;-75
2022/12/22 14:27:48;;;;;;;;;10.75;5.00;;;;;-146.50;100.00;59256.41;5074121;27;46210;-75
2022/12/22 14:30:40;;;;;;;;;4.50;4.50;;;;;-146.50;100.00;59256.41;5073291;27;45504;-74
2022/12/22 14:33:22;;;;;;;;;8.25;4.00;;;;;-146.50;100.00;59256.41;5074165;28;45326;-75
2022/12/22 14:35:49;;;;;;;;;10.25;5.50;;;;;-146.50;100.00;59256.41;5075773;28;45361;-75
2022/12/22 14:38:25;;;;;;;;;7.50;4.75;;;;;-146.50;100.00;59256.41;5076965;28;45394;-74
2022/12/22 14:40:53;;;;;;;;;6.75;3.75;;;;;-146.50;100.00;59256.41;5076748;27;45458;-75
2022/12/22 14:43:18;;;;;;;;;6.00;3.50;;;;;-146.50;100.00;59256.41;5074298;28;45340;-74
2022/12/22 14:45:46;;;;;;;;;4.75;3.50;;;;;-146.50;100.00;59256.41;5076944;28;45343;-75
2022/12/22 14:48:44;;;;;;;;;6.00;4.00;;;;;-146.50;100.00;59256.41;5076968;28;46186;-74
2022/12/22 14:51:15;;;;;;;;;6.25;4.00;;;;;-146.50;100.00;59256.41;5076867;27;45380;-74
2022/12/22 14:53:54;;;;;;;;;1.33;1.33;;;;;-146.50;100.00;59256.41;5074506;28;45505;-74
2022/12/22 14:56:21;;;;;;;;;6.00;3.67;;;;;-146.50;100.00;59256.41;5072736;28;45612;-75
2022/12/22 14:58:48;;;;;;;;;3.00;3.00;;;;;-146.50;100.00;59256.41;5076823;27;45440;-74
2022/12/22 15:01:13;;;;;;;;;3.25;2.50;;;;;-146.50;100.00;59256.41;5075967;28;45293;-74
2022/12/22 15:03:39;;;;;;;;;4.00;4.00;;;;;-146.50;100.00;59256.41;5076358;28;45365;-75
2022/12/22 15:06:33;;;;;;;;;4.00;3.00;;;;;-146.50;100.00;59256.41;5076532;27;45347;-73